Terminal Aerodrome Forecast
Issued by NWS Chicago, IL

Home | Current Version | Previous Version | Graphics & Text | Print | Product List | Glossary On
Versions: 1 2 3 4 5 6 7 8 9 10 11 12 13 14 15 16 17 18 19 20 21 22 23 24 25 26 27 28 29 30 31 32 33 34 35 36 37 38 39 40 41
000
FTUS43 KLOT 231100 AAA
TAFRFD
TAF AMD
KRFD 231158Z 2312/2412 18009KT 5SM BR SCT010 OVC020
     FM231400 17012KT 4SM -SHRA BR BKN007 OVC015
     FM231800 14012G20KT 3SM -RA BR OVC005
     FM240300 15008KT 1 1/2SM -RA BR OVC003
     FM240600 19008KT 2SM -RA BR OVC004
     FM241000 27011KT 4SM -RA BR OVC007=

USA.gov is the U.S. government's official web portal to all federal, state and local government web resources and services.